Ballinamallard, United Kingdom
Current Conditions -  °F | °C
As of 5:00 PM on Saturday 25 Oct 2014 (Local Time) from EISG Reporting Station
Broken Clouds Broken Clouds  
Wind Chill: 54°   Ceiling: 6300
Heat Index: 54°   Visibility: 6mi
Dew Point: 45°   Wind: 15mph
Humidity: 72%   Direction: 220°SW
Pressure: 29.77"   Gusts: NA
Location:  54.4°N, 7.58°W
Report Text: EISG 251600Z 22013KT 9999 BKN063 12/07 Q1008
Loading
Personal Weather Stations






























Interactive Weather Map New forecast layout! Learn more

10-Day Weather Forecast

Advertisements
Track Severe Weather on mobile